Estación de Tranapuente INIA
Ultimos registro cada 15 minutos 85
| N° | Estación | Fecha / Hora | Temperatura | Humedad | Lluvia | Velocidad | Dirección | Radiación | Presion |
| 85 | Tranapuente INIA | 05-09-2026 21:00 | 8,8 | 36,4 | 0 | 3,2 | 178 | 0,1 | 1015 |
| 84 | Tranapuente INIA | 05-09-2026 20:45 | 9,2 | 35,4 | 0 | 3,5 | 176 | 0,1 | 1015 |
| 83 | Tranapuente INIA | 05-09-2026 20:30 | 9,4 | 34,3 | 0 | 3,8 | 180 | 0,2 | 1015 |
| 82 | Tranapuente INIA | 05-09-2026 20:15 | 9,7 | 33,2 | 0 | 3,9 | 178 | 0,2 | 1015 |
| 81 | Tranapuente INIA | 05-09-2026 20:00 | 9,8 | 35,1 | 0 | 3,3 | 173 | 0,2 | 1015 |
| 80 | Tranapuente INIA | 05-09-2026 19:45 | 10,1 | 35 | 0 | 4,1 | 177 | 0,2 | 1015 |
| 79 | Tranapuente INIA | 05-09-2026 19:30 | 10,4 | 33,8 | 0 | 4,5 | 176 | 0,2 | 1014 |
| 78 | Tranapuente INIA | 05-09-2026 19:15 | 10,7 | 30,7 | 0 | 4,6 | 174 | 0,2 | 1015 |
| 77 | Tranapuente INIA | 05-09-2026 19:00 | 10,9 | 31,1 | 0 | 4,3 | 175 | 0,7 | 1015 |
| 76 | Tranapuente INIA | 05-09-2026 18:45 | 11 | 31,2 | 0 | 4,3 | 175 | 3,9 | 1015 |
| 75 | Tranapuente INIA | 05-09-2026 18:30 | 11,4 | 33 | 0 | 4,6 | 175 | 9,2 | 1015 |
| 74 | Tranapuente INIA | 05-09-2026 18:15 | 11,8 | 31 | 0 | 4,6 | 169 | 35,4 | 1015 |
| 73 | Tranapuente INIA | 05-09-2026 18:00 | 12,2 | 29,6 | 0 | 5 | 161 | 106,2 | 1015 |
| 72 | Tranapuente INIA | 05-09-2026 17:45 | 12,4 | 31,1 | 0 | 4,9 | 165 | 146,6 | 1015 |
| 71 | Tranapuente INIA | 05-09-2026 17:30 | 12,6 | 31,4 | 0 | 4,8 | 167 | 188,9 | 1015 |
| 70 | Tranapuente INIA | 05-09-2026 17:15 | 12,8 | 30,6 | 0 | 6 | 170 | 232,2 | 1015 |
| 69 | Tranapuente INIA | 05-09-2026 17:00 | 12,8 | 29 | 0 | 6,4 | 172 | 274,1 | 1014 |
| 68 | Tranapuente INIA | 05-09-2026 16:45 | 12,9 | 30,5 | 0 | 6,2 | 178 | 315,9 | 1015 |
| 67 | Tranapuente INIA | 05-09-2026 16:30 | 12,9 | 31,5 | 0 | 6,9 | 185 | 358,5 | 1015 |
| 66 | Tranapuente INIA | 05-09-2026 16:15 | 13 | 30,2 | 0 | 6,8 | 179 | 395,1 | 1015 |
| 65 | Tranapuente INIA | 05-09-2026 16:00 | 13,1 | 30,2 | 0 | 7,4 | 177 | 431,1 | 1015 |
| 64 | Tranapuente INIA | 05-09-2026 15:45 | 13,1 | 31,5 | 0 | 6,5 | 182 | 462,3 | 1015 |
| 63 | Tranapuente INIA | 05-09-2026 15:30 | 13,2 | 33,4 | 0 | 5,5 | 178 | 493,6 | 1015 |
| 62 | Tranapuente INIA | 05-09-2026 15:15 | 13 | 34,2 | 0 | 6 | 172 | 523,6 | 1015 |
| 61 | Tranapuente INIA | 05-09-2026 15:00 | 13 | 31,6 | 0 | 6,7 | 176 | 550,8 | 1016 |
| 60 | Tranapuente INIA | 05-09-2026 14:45 | 12,9 | 35,5 | 0 | 5,6 | 183 | 573,8 | 1016 |
| 59 | Tranapuente INIA | 05-09-2026 14:30 | 12,8 | 33,1 | 0 | 5,4 | 181 | 595,7 | 1016 |
| 58 | Tranapuente INIA | 05-09-2026 14:15 | 12,4 | 37,4 | 0 | 6,2 | 184 | 613,7 | 1016 |
| 57 | Tranapuente INIA | 05-09-2026 14:00 | 12,3 | 35 | 0 | 5,6 | 177 | 627,4 | 1017 |
| 56 | Tranapuente INIA | 05-09-2026 13:45 | 12,1 | 39,7 | 0 | 5 | 175 | 638 | 1017 |
| 55 | Tranapuente INIA | 05-09-2026 13:30 | 12 | 33 | 0 | 5,1 | 177 | 645,1 | 1017 |
| 54 | Tranapuente INIA | 05-09-2026 13:15 | 11,9 | 33,9 | 0 | 3,8 | 172 | 649,6 | 1018 |
| 53 | Tranapuente INIA | 05-09-2026 13:00 | 11,5 | 38,5 | 0 | 4,9 | 179 | 650,1 | 1018 |
| 52 | Tranapuente INIA | 05-09-2026 12:45 | 11,5 | 29,9 | 0 | 5,4 | 180 | 648,8 | 1018 |
| 51 | Tranapuente INIA | 05-09-2026 12:30 | 11,4 | 33,3 | 0 | 4,9 | 169 | 643 | 1018 |
| 50 | Tranapuente INIA | 05-09-2026 12:15 | 11,2 | 33,8 | 0 | 5,1 | 163 | 634,4 | 1018 |
| 49 | Tranapuente INIA | 05-09-2026 12:00 | 11,2 | 32,8 | 0 | 4,8 | 161 | 622,6 | 1018 |
| 48 | Tranapuente INIA | 05-09-2026 11:45 | 11,1 | 32,2 | 0 | 4,4 | 170 | 607,1 | 1019 |
| 47 | Tranapuente INIA | 05-09-2026 11:30 | 10,9 | 37,8 | 0 | 4,1 | 178 | 588,2 | 1019 |
| 46 | Tranapuente INIA | 05-09-2026 11:15 | 10,6 | 34,9 | 0 | 4,3 | 172 | 566,1 | 1019 |
| 45 | Tranapuente INIA | 05-09-2026 11:00 | 10,5 | 39,6 | 0 | 4 | 153 | 543,1 | 1019 |
| 44 | Tranapuente INIA | 05-09-2026 10:45 | 10,4 | 40,9 | 0 | 3,4 | 160 | 516,2 | 1019 |
| 43 | Tranapuente INIA | 05-09-2026 10:30 | 10 | 41,9 | 0 | 3,9 | 168 | 486,6 | 1019 |
| 42 | Tranapuente INIA | 05-09-2026 10:15 | 9,6 | 42,1 | 0 | 4,1 | 165 | 453,3 | 1019 |
| 41 | Tranapuente INIA | 05-09-2026 10:00 | 9,5 | 36,8 | 0 | 3,7 | 172 | 417,2 | 1019 |
| 40 | Tranapuente INIA | 05-09-2026 09:45 | 9,2 | 41,3 | 0 | 3 | 156 | 380 | 1019 |
| 39 | Tranapuente INIA | 05-09-2026 09:30 | 9 | 46,5 | 0 | 2,1 | 146 | 342,6 | 1019 |
| 38 | Tranapuente INIA | 05-09-2026 09:15 | 8,7 | 45,1 | 0 | 2,8 | 155 | 301,9 | 1019 |
| 37 | Tranapuente INIA | 05-09-2026 09:00 | 8,4 | 43,9 | 0 | 3,1 | 148 | 255,6 | 1019 |
| 36 | Tranapuente INIA | 05-09-2026 08:45 | 8,1 | 46,8 | 0 | 2,9 | 136 | 135,3 | 1019 |
| 35 | Tranapuente INIA | 05-09-2026 08:30 | 7,7 | 50,3 | 0 | 2,5 | 137 | 177,2 | 1019 |
| 34 | Tranapuente INIA | 05-09-2026 08:15 | 7,3 | 51,2 | 0 | 2,6 | 145 | 135,5 | 1019 |
| 33 | Tranapuente INIA | 05-09-2026 08:00 | 6,8 | 56,3 | 0 | 2,6 | 146 | 93,6 | 1019 |
| 32 | Tranapuente INIA | 05-09-2026 07:45 | 6,3 | 59,1 | 0 | 2,6 | 143 | 52,3 | 1019 |
| 31 | Tranapuente INIA | 05-09-2026 07:30 | 5,3 | 62,8 | 0 | 1,8 | 137 | 18,4 | 1019 |
| 30 | Tranapuente INIA | 05-09-2026 07:15 | 4,6 | 72 | 0 | 0,6 | 134 | 3,8 | 1019 |
| 29 | Tranapuente INIA | 05-09-2026 07:00 | 3,8 | 83,8 | 0 | 0 | 0 | 0,8 | 1019 |
| 28 | Tranapuente INIA | 05-09-2026 06:45 | 3,7 | 88,9 | 0 | 0 | 0 | 0,4 | 1019 |
| 27 | Tranapuente INIA | 05-09-2026 06:30 | 3,8 | 94,6 | 0 | 0 | 0 | 0,3 | 1019 |
| 26 | Tranapuente INIA | 05-09-2026 06:15 | 3,6 | 98,8 | 0 | 0 | 0 | 0,3 | 1019 |
| 25 | Tranapuente INIA | 05-09-2026 06:00 | 3,7 | 98,8 | 0 | 0 | 0 | 0,2 | 1019 |
| 24 | Tranapuente INIA | 05-09-2026 05:45 | 4 | 99,5 | 0 | 0 | 0 | 0,2 | 1019 |
| 23 | Tranapuente INIA | 05-09-2026 05:30 | 3,6 | 99,9 | 0 | 0 | 0 | 0,2 | 1019 |
| 22 | Tranapuente INIA | 05-09-2026 05:15 | 3,6 | 99,6 | 0 | 0 | 0 | 0,2 | 1019 |
| 21 | Tranapuente INIA | 05-09-2026 05:00 | 4,1 | 99,1 | 0 | 0 | 0 | 0,2 | 1019 |
| 20 | Tranapuente INIA | 05-09-2026 04:45 | 4,6 | 99,5 | 0 | 0 | 0 | 0,2 | 1019 |
| 19 | Tranapuente INIA | 05-09-2026 04:30 | 3,9 | 99,9 | 0,1 | 0 | 0 | 0,2 | 1019 |
| 18 | Tranapuente INIA | 05-09-2026 04:15 | 3,9 | 98,9 | 0 | 0,1 | 324 | 0,2 | 1019 |
| 17 | Tranapuente INIA | 05-09-2026 04:00 | 4,2 | 99,6 | 0 | 0 | 0 | 0,3 | 1019 |
| 16 | Tranapuente INIA | 05-09-2026 03:45 | 4,5 | 99,2 | 0 | 0 | 0 | 0,2 | 1019 |
| 15 | Tranapuente INIA | 05-09-2026 03:30 | 4,7 | 98,8 | 0 | 0 | 0 | 0,3 | 1019 |
| 14 | Tranapuente INIA | 05-09-2026 03:15 | 5,2 | 97,9 | 0 | 0 | 0 | 0,3 | 1020 |
| 13 | Tranapuente INIA | 05-09-2026 03:00 | 5 | 99,5 | 0 | 0 | 0 | 0,4 | 1020 |
| 12 | Tranapuente INIA | 05-09-2026 02:45 | 5,3 | 99,1 | 0 | 0 | 0 | 0,4 | 1020 |
| 11 | Tranapuente INIA | 05-09-2026 02:30 | 5,4 | 98,7 | 0 | 0 | 0 | 0,4 | 1020 |
| 10 | Tranapuente INIA | 05-09-2026 02:15 | 6 | 98,9 | 0 | 0 | 0 | 0,4 | 1020 |
| 9 | Tranapuente INIA | 05-09-2026 02:00 | 6,1 | 99 | 0 | 0 | 0 | 0,4 | 1020 |
| 8 | Tranapuente INIA | 05-09-2026 01:45 | 5,8 | 99,5 | 0 | 0 | 0 | 0,4 | 1020 |
| 7 | Tranapuente INIA | 05-09-2026 01:30 | 5,7 | 98,3 | 0 | 0 | 0 | 0,4 | 1020 |
| 6 | Tranapuente INIA | 05-09-2026 01:15 | 5,8 | 98,6 | 0 | 0 | 0 | 0,4 | 1020 |
| 5 | Tranapuente INIA | 05-09-2026 01:00 | 6,1 | 98,5 | 0 | 0 | 0 | 0,4 | 1020 |
| 4 | Tranapuente INIA | 05-09-2026 00:45 | 6,1 | 98,6 | 0 | 0 | 0 | 0,4 | 1020 |
| 3 | Tranapuente INIA | 05-09-2026 00:30 | 6,6 | 97,6 | 0 | 0 | 0 | 0,4 | 1020 |
| 2 | Tranapuente INIA | 05-09-2026 00:15 | 6,8 | 98 | 0 | 0 | 0 | 0,4 | 1021 |
| 1 | Tranapuente INIA | 05-09-2026 00:00 | 6,2 | 99,3 | 0 | 0 | 0 | 0,4 | 1021 |